Time;durP1;ratioP1;P1;durP2;ratioP2;P2;SDS_P1;SDS_P2;PMS_P1;PMS_P2;Temp;Humidity;BMP_temperature;BMP_pressure;BME280_temperature;BME280_humidity;BME280_pressure;Samples;Min_cycle;Max_cycle;Signal;HPM_P1;HPM_P2
2023/02/07 00:00:23;;;;;;;1.75;0.60;;;;;;;;;;4996539;28;20495;-60
2023/02/07 00:02:50;;;;;;;1.08;0.40;;;;;;;;;;4995055;28;20559;-63
2023/02/07 00:05:17;;;;;;;1.75;0.50;;;;;;;;;;4998681;28;20044;-59
2023/02/07 00:07:43;;;;;;;2.65;0.55;;;;;;;;;;4997898;28;20033;-61
2023/02/07 00:10:10;;;;;;;0.22;0.22;;;;;;;;;;4997531;28;20041;-63
2023/02/07 00:12:37;;;;;;;1.17;0.40;;;;;;;;;;4996209;28;20149;-63
2023/02/07 00:15:04;;;;;;;0.88;0.40;;;;;;;;;;4999426;28;20061;-61
2023/02/07 00:17:30;;;;;;;0.73;0.30;;;;;;;;;;4997134;28;20886;-61
2023/02/07 00:19:57;;;;;;;0.55;0.30;;;;;;;;;;4998828;28;20045;-64
2023/02/07 00:22:24;;;;;;;1.17;0.50;;;;;;;;;;4998849;28;20053;-65
2023/02/07 00:24:50;;;;;;;1.80;0.45;;;;;;;;;;4998635;28;20049;-62
2023/02/07 00:27:17;;;;;;;2.33;0.57;;;;;;;;;;5009731;28;20136;-62
2023/02/07 00:29:44;;;;;;;1.33;0.43;;;;;;;;;;4998363;28;20374;-63
2023/02/07 00:32:10;;;;;;;0.82;0.35;;;;;;;;;;5002780;28;20125;-62
2023/02/07 00:34:37;;;;;;;1.08;0.40;;;;;;;;;;5000414;28;21264;-67
2023/02/07 00:37:04;;;;;;;2.92;0.50;;;;;;;;;;5004660;28;20045;-59
2023/02/07 00:39:31;;;;;;;1.25;0.47;;;;;;;;;;5015094;28;20038;-63
2023/02/07 00:41:58;;;;;;;1.13;0.40;;;;;;;;;;5004267;28;20057;-60
2023/02/07 00:44:25;;;;;;;3.83;0.60;;;;;;;;;;5002118;28;20057;-62
2023/02/07 00:46:51;;;;;;;0.88;0.40;;;;;;;;;;5004092;28;20883;-62
2023/02/07 00:49:18;;;;;;;1.95;0.50;;;;;;;;;;5001643;28;20034;-61
2023/02/07 00:51:45;;;;;;;1.35;0.40;;;;;;;;;;5000093;28;20048;-63
2023/02/07 00:54:11;;;;;;;2.05;0.65;;;;;;;;;;5004555;28;20041;-66
2023/02/07 00:56:38;;;;;;;0.85;0.40;;;;;;;;;;5003286;28;20108;-67
2023/02/07 00:59:05;;;;;;;2.00;0.40;;;;;;;;;;5003051;28;20034;-65
2023/02/07 01:01:31;;;;;;;1.75;0.50;;;;;;;;;;5000819;28;20603;-61
2023/02/07 01:03:58;;;;;;;2.15;0.60;;;;;;;;;;5000776;28;20073;-62
2023/02/07 01:06:26;;;;;;;0.93;0.40;;;;;;;;;;5000428;28;20506;-63
2023/02/07 01:08:57;;;;;;;2.33;0.50;;;;;;;;;;4999102;28;20110;-64
2023/02/07 01:11:24;;;;;;;4.13;0.43;;;;;;;;;;5001562;28;20124;-63
2023/02/07 01:13:51;;;;;;;1.20;0.40;;;;;;;;;;5000451;28;20105;-60
2023/02/07 01:16:26;;;;;;;1.63;0.60;;;;;;;;;;5000907;28;20092;-61
2023/02/07 01:18:52;;;;;;;2.83;0.50;;;;;;;;;;4997925;28;20857;-62
2023/02/07 01:21:21;;;;;;;1.42;0.40;;;;;;;;;;5000806;28;20042;-62
2023/02/07 01:23:48;;;;;;;1.92;0.60;;;;;;;;;;5001552;28;20450;-66
2023/02/07 01:26:17;;;;;;;1.63;0.60;;;;;;;;;;5000079;28;20624;-63
2023/02/07 01:28:44;;;;;;;1.42;0.50;;;;;;;;;;5007729;28;20053;-60
2023/02/07 01:31:11;;;;;;;1.25;0.45;;;;;;;;;;5000491;28;20606;-62
2023/02/07 01:33:38;;;;;;;1.85;0.50;;;;;;;;;;4999198;28;20065;-63
2023/02/07 01:36:09;;;;;;;1.83;0.50;;;;;;;;;;5001610;28;20756;-63
2023/02/07 01:38:36;;;;;;;1.33;0.35;;;;;;;;;;5002480;28;20070;-63
2023/02/07 01:41:02;;;;;;;1.00;0.40;;;;;;;;;;5003949;28;20037;-66
2023/02/07 01:43:29;;;;;;;4.78;0.60;;;;;;;;;;5002857;28;20638;-61
2023/02/07 01:45:56;;;;;;;2.15;0.60;;;;;;;;;;4999564;28;20038;-61
2023/02/07 01:48:31;;;;;;;1.83;0.55;;;;;;;;;;5002887;28;20068;-63
2023/02/07 01:51:02;;;;;;;2.35;0.68;;;;;;;;;;5008657;28;20062;-63
2023/02/07 01:53:29;;;;;;;1.33;0.50;;;;;;;;;;5006592;28;20394;-61
2023/02/07 01:55:59;;;;;;;3.80;0.65;;;;;;;;;;5016189;28;20042;-61
2023/02/07 01:58:26;;;;;;;3.58;0.63;;;;;;;;;;5008080;28;20069;-61
2023/02/07 02:00:53;;;;;;;1.55;0.50;;;;;;;;;;5009174;28;20042;-62
2023/02/07 02:03:20;;;;;;;0.73;0.35;;;;;;;;;;5003917;28;20495;-60
2023/02/07 02:05:47;;;;;;;2.25;0.40;;;;;;;;;;5000840;28;20357;-61
2023/02/07 02:08:13;;;;;;;1.63;0.55;;;;;;;;;;5001370;28;20033;-60
2023/02/07 02:10:54;;;;;;;2.75;0.40;;;;;;;;;;5000154;28;20511;-62
2023/02/07 02:13:23;;;;;;;1.50;0.50;;;;;;;;;;5000545;28;20053;-62
2023/02/07 02:15:57;;;;;;;1.45;0.50;;;;;;;;;;5000916;28;20042;-58
2023/02/07 02:18:27;;;;;;;0.90;0.40;;;;;;;;;;4999537;28;20068;-60
2023/02/07 02:21:00;;;;;;;2.38;0.50;;;;;;;;;;4998908;28;20042;-61
2023/02/07 02:23:45;;;;;;;1.55;0.50;;;;;;;;;;4999307;28;21303;-61
2023/02/07 02:26:30;;;;;;;0.45;0.40;;;;;;;;;;4997494;28;20054;-62
2023/02/07 02:29:17;;;;;;;4.25;0.73;;;;;;;;;;5018998;28;20422;-62
2023/02/07 02:31:55;;;;;;;1.23;0.40;;;;;;;;;;5017940;28;20095;-61
2023/02/07 02:34:40;;;;;;;1.08;0.40;;;;;;;;;;5018831;28;20114;-61
2023/02/07 02:37:26;;;;;;;1.08;0.40;;;;;;;;;;5018167;28;20563;-61
2023/02/07 02:40:04;;;;;;;1.08;0.40;;;;;;;;;;5018487;28;20199;-62
2023/02/07 02:42:34;;;;;;;1.05;0.40;;;;;;;;;;5018266;28;20207;-60
2023/02/07 02:45:08;;;;;;;1.13;0.40;;;;;;;;;;5019495;28;20430;-58
2023/02/07 02:47:36;;;;;;;1.40;0.40;;;;;;;;;;5016941;28;20049;-61
2023/02/07 02:50:04;;;;;;;0.88;0.30;;;;;;;;;;5019242;28;20128;-61
2023/02/07 02:52:31;;;;;;;1.38;0.50;;;;;;;;;;5017637;28;20041;-60
2023/02/07 02:54:57;;;;;;;2.42;0.60;;;;;;;;;;5019502;28;20438;-62
2023/02/07 02:57:26;;;;;;;1.75;0.60;;;;;;;;;;5017799;28;20059;-60
2023/02/07 02:59:55;;;;;;;2.47;0.45;;;;;;;;;;5008377;28;20087;-60
2023/02/07 03:02:22;;;;;;;1.50;0.45;;;;;;;;;;5018555;28;20036;-63
2023/02/07 03:04:51;;;;;;;1.58;0.60;;;;;;;;;;5010513;28;20056;-62
2023/02/07 03:07:37;;;;;;;1.90;0.60;;;;;;;;;;5021384;28;20098;-59
2023/02/07 03:10:26;;;;;;;2.30;0.50;;;;;;;;;;5021654;28;20050;-63
2023/02/07 03:13:14;;;;;;;1.85;0.60;;;;;;;;;;4993692;28;20118;-63
2023/02/07 03:15:47;;;;;;;3.65;0.43;;;;;;;;;;5023527;28;20511;-61
2023/02/07 03:18:16;;;;;;;1.73;0.50;;;;;;;;;;5018699;28;20061;-61
2023/02/07 03:20:48;;;;;;;4.60;0.52;;;;;;;;;;5016807;28;21398;-60
2023/02/07 03:23:16;;;;;;;1.35;0.40;;;;;;;;;;5020146;28;20604;-61
2023/02/07 03:25:45;;;;;;;0.70;0.32;;;;;;;;;;5020611;28;20041;-62
2023/02/07 03:28:13;;;;;;;2.53;0.50;;;;;;;;;;5017673;28;20323;-58
2023/02/07 03:30:42;;;;;;;1.23;0.40;;;;;;;;;;5022200;28;20042;-62
2023/02/07 03:33:12;;;;;;;2.78;0.50;;;;;;;;;;5021861;28;20040;-60
2023/02/07 03:36:08;;;;;;;4.15;0.43;;;;;;;;;;5017832;28;20076;-61
2023/02/07 03:38:35;;;;;;;1.70;0.55;;;;;;;;;;5004007;28;20057;-61
2023/02/07 03:41:07;;;;;;;2.25;0.55;;;;;;;;;;5020509;28;20117;-61
2023/02/07 03:43:35;;;;;;;0.85;0.38;;;;;;;;;;5019198;28;20041;-63
2023/02/07 03:46:01;;;;;;;2.88;0.55;;;;;;;;;;5017861;28;20927;-62
2023/02/07 03:48:28;;;;;;;1.33;0.40;;;;;;;;;;5016503;28;20030;-61
2023/02/07 03:50:55;;;;;;;1.25;0.47;;;;;;;;;;5018870;28;20168;-62
2023/02/07 03:53:21;;;;;;;0.95;0.32;;;;;;;;;;5018131;28;20059;-62
2023/02/07 03:55:48;;;;;;;2.97;0.40;;;;;;;;;;5018503;28;20050;-62
2023/02/07 03:58:15;;;;;;;1.25;0.40;;;;;;;;;;5017596;28;20109;-61
2023/02/07 04:00:41;;;;;;;2.78;0.60;;;;;;;;;;5017822;28;21727;-61
2023/02/07 04:03:08;;;;;;;1.60;0.50;;;;;;;;;;5018513;28;20037;-61
2023/02/07 04:05:34;;;;;;;2.00;0.50;;;;;;;;;;5016471;28;20108;-61
2023/02/07 04:08:01;;;;;;;0.93;0.40;;;;;;;;;;5020451;28;20140;-60
2023/02/07 04:10:29;;;;;;;2.45;0.50;;;;;;;;;;5022117;28;20048;-62
2023/02/07 04:12:55;;;;;;;1.55;0.43;;;;;;;;;;5022819;28;20506;-59
2023/02/07 04:15:22;;;;;;;1.80;0.40;;;;;;;;;;5021664;28;20042;-60
2023/02/07 04:17:49;;;;;;;2.03;0.57;;;;;;;;;;5022318;28;20430;-61
2023/02/07 04:20:15;;;;;;;0.95;0.30;;;;;;;;;;5027913;28;20045;-61
2023/02/07 04:22:42;;;;;;;1.00;0.45;;;;;;;;;;5025471;28;20072;-61
2023/02/07 04:25:09;;;;;;;0.73;0.40;;;;;;;;;;5024061;28;20541;-61
2023/02/07 04:27:35;;;;;;;2.28;0.60;;;;;;;;;;5024630;28;20041;-60
2023/02/07 04:30:02;;;;;;;1.13;0.40;;;;;;;;;;5023988;28;20081;-59
2023/02/07 04:32:28;;;;;;;0.90;0.50;;;;;;;;;;5029634;28;20052;-61
2023/02/07 04:34:55;;;;;;;2.10;0.50;;;;;;;;;;5027104;28;20048;-62
2023/02/07 04:37:22;;;;;;;2.20;0.35;;;;;;;;;;5020049;28;20045;-60
2023/02/07 04:39:48;;;;;;;0.70;0.30;;;;;;;;;;5021634;28;20111;-61
2023/02/07 04:42:15;;;;;;;0.85;0.30;;;;;;;;;;5026075;28;20382;-62
2023/02/07 04:44:42;;;;;;;1.05;0.40;;;;;;;;;;5018689;28;20045;-60
2023/02/07 04:47:08;;;;;;;0.75;0.40;;;;;;;;;;5019680;28;20041;-61
2023/02/07 04:49:35;;;;;;;1.15;0.40;;;;;;;;;;5018944;28;20065;-61
2023/02/07 04:52:02;;;;;;;1.63;0.40;;;;;;;;;;5019822;28;20616;-61
2023/02/07 04:54:28;;;;;;;1.48;0.50;;;;;;;;;;5018945;28;20063;-61
2023/02/07 04:56:55;;;;;;;0.95;0.40;;;;;;;;;;5019743;28;20367;-60
2023/02/07 04:59:22;;;;;;;0.57;0.30;;;;;;;;;;5019377;28;20563;-60
2023/02/07 05:01:48;;;;;;;0.88;0.40;;;;;;;;;;5018976;28;20091;-61
2023/02/07 05:04:15;;;;;;;0.73;0.30;;;;;;;;;;5019769;28;21811;-59
2023/02/07 05:06:41;;;;;;;0.75;0.40;;;;;;;;;;5029529;28;20080;-59
2023/02/07 05:09:09;;;;;;;2.35;0.47;;;;;;;;;;5034967;28;20043;-60
2023/02/07 05:11:36;;;;;;;1.42;0.40;;;;;;;;;;5028120;28;20121;-62
2023/02/07 05:14:03;;;;;;;1.13;0.40;;;;;;;;;;5025981;28;20157;-60
2023/02/07 05:16:30;;;;;;;1.00;0.40;;;;;;;;;;5028201;28;20498;-62
2023/02/07 05:18:56;;;;;;;1.15;0.40;;;;;;;;;;5026117;28;20121;-59
2023/02/07 05:21:23;;;;;;;0.70;0.30;;;;;;;;;;5018195;28;20048;-62
2023/02/07 05:23:51;;;;;;;0.95;0.40;;;;;;;;;;5023241;28;20053;-62
2023/02/07 05:26:18;;;;;;;0.95;0.40;;;;;;;;;;5024064;28;20052;-64
2023/02/07 05:28:44;;;;;;;2.03;0.50;;;;;;;;;;5022545;28;20038;-64
2023/02/07 05:31:11;;;;;;;0.65;0.30;;;;;;;;;;5022265;28;20138;-61
2023/02/07 05:33:38;;;;;;;1.15;0.47;;;;;;;;;;5019510;28;20589;-60
2023/02/07 05:36:06;;;;;;;1.00;0.30;;;;;;;;;;5019198;28;20045;-62
2023/02/07 05:38:32;;;;;;;0.73;0.40;;;;;;;;;;5019500;28;20044;-61
2023/02/07 05:40:59;;;;;;;0.82;0.40;;;;;;;;;;5018679;28;20037;-61
2023/02/07 05:43:26;;;;;;;2.35;0.40;;;;;;;;;;5019166;28;20037;-59
2023/02/07 05:45:53;;;;;;;1.67;0.40;;;;;;;;;;5020958;28;20037;-61
2023/02/07 05:48:19;;;;;;;1.25;0.40;;;;;;;;;;5018010;28;22178;-62
2023/02/07 05:50:46;;;;;;;1.95;0.40;;;;;;;;;;5019309;28;20057;-59
2023/02/07 05:53:13;;;;;;;1.33;0.40;;;;;;;;;;5019664;28;20099;-60
2023/02/07 05:55:39;;;;;;;1.10;0.40;;;;;;;;;;5014942;28;22869;-61
2023/02/07 05:58:06;;;;;;;1.00;0.40;;;;;;;;;;5007814;28;20450;-60
2023/02/07 06:00:33;;;;;;;3.85;0.47;;;;;;;;;;5005794;28;20042;-61
2023/02/07 06:03:19;;;;;;;1.15;0.40;;;;;;;;;;4953771;28;20034;-64
2023/02/07 06:05:46;;;;;;;0.68;0.40;;;;;;;;;;4954482;28;20066;-60
2023/02/07 06:08:12;;;;;;;0.70;0.30;;;;;;;;;;4954692;28;20150;-58
2023/02/07 06:10:39;;;;;;;1.02;0.40;;;;;;;;;;4954497;28;20074;-60
2023/02/07 06:13:06;;;;;;;2.35;0.40;;;;;;;;;;4956757;28;20427;-59
2023/02/07 06:15:33;;;;;;;1.13;0.40;;;;;;;;;;4961323;28;20035;-60
2023/02/07 06:17:59;;;;;;;3.22;0.50;;;;;;;;;;4961878;28;20042;-60
2023/02/07 06:20:26;;;;;;;0.63;0.35;;;;;;;;;;4964774;28;20074;-60
2023/02/07 06:22:53;;;;;;;0.55;0.30;;;;;;;;;;4971719;28;20038;-60
2023/02/07 06:25:20;;;;;;;0.98;0.40;;;;;;;;;;4964151;28;20043;-61
2023/02/07 06:27:46;;;;;;;0.63;0.40;;;;;;;;;;4956309;28;20046;-61
2023/02/07 06:30:13;;;;;;;0.65;0.30;;;;;;;;;;4954622;28;20043;-58
2023/02/07 06:32:59;;;;;;;1.58;0.50;;;;;;;;;;4914268;29;20043;-61
2023/02/07 06:35:26;;;;;;;1.35;0.50;;;;;;;;;;4953251;28;20112;-59
2023/02/07 06:37:57;;;;;;;1.13;0.40;;;;;;;;;;4954618;28;20042;-59
2023/02/07 06:40:23;;;;;;;1.45;0.47;;;;;;;;;;4955925;28;20085;-60
2023/02/07 06:42:50;;;;;;;1.15;0.40;;;;;;;;;;4956148;28;20046;-60
2023/02/07 06:45:17;;;;;;;1.05;0.30;;;;;;;;;;4955991;28;20445;-62
2023/02/07 06:47:43;;;;;;;1.27;0.32;;;;;;;;;;4955054;28;20046;-60
2023/02/07 06:50:10;;;;;;;1.10;0.43;;;;;;;;;;4956190;28;20157;-61
2023/02/07 06:52:38;;;;;;;0.30;0.30;;;;;;;;;;4956804;28;20234;-60
2023/02/07 06:55:05;;;;;;;1.02;0.40;;;;;;;;;;4956961;28;22308;-60
2023/02/07 06:57:31;;;;;;;1.80;0.45;;;;;;;;;;4955017;28;20117;-58
2023/02/07 06:59:58;;;;;;;1.15;0.40;;;;;;;;;;4956914;28;20039;-62
2023/02/07 07:02:25;;;;;;;1.27;0.40;;;;;;;;;;4956263;28;20435;-60
2023/02/07 07:05:11;;;;;;;0.88;0.40;;;;;;;;;;4918059;28;21890;-61
2023/02/07 07:07:37;;;;;;;1.40;0.47;;;;;;;;;;4916330;29;20324;-60
2023/02/07 07:10:04;;;;;;;1.40;0.40;;;;;;;;;;4928092;28;20105;-57
2023/02/07 07:12:31;;;;;;;0.93;0.40;;;;;;;;;;4962392;28;20041;-59
2023/02/07 07:14:58;;;;;;;1.25;0.40;;;;;;;;;;4968056;28;20078;-59
2023/02/07 07:17:24;;;;;;;1.35;0.40;;;;;;;;;;4951228;28;20058;-60
2023/02/07 07:19:51;;;;;;;2.17;0.47;;;;;;;;;;4952868;28;20043;-59
2023/02/07 07:22:19;;;;;;;0.73;0.32;;;;;;;;;;4952553;28;20468;-61
2023/02/07 07:24:46;;;;;;;1.00;0.40;;;;;;;;;;4952434;28;20081;-60
2023/02/07 07:27:13;;;;;;;0.85;0.40;;;;;;;;;;4952528;28;20262;-60
2023/02/07 07:29:39;;;;;;;1.73;0.50;;;;;;;;;;4951168;28;20412;-58
2023/02/07 07:32:06;;;;;;;1.00;0.40;;;;;;;;;;4953917;28;20039;-60
2023/02/07 07:34:33;;;;;;;0.77;0.40;;;;;;;;;;4951965;28;20035;-61
2023/02/07 07:36:59;;;;;;;0.98;0.40;;;;;;;;;;4952611;28;20031;-59
2023/02/07 07:39:26;;;;;;;0.95;0.40;;;;;;;;;;4958172;28;20043;-63
2023/02/07 07:41:53;;;;;;;2.60;0.50;;;;;;;;;;4964341;28;20038;-60
2023/02/07 07:44:19;;;;;;;1.02;0.40;;;;;;;;;;5004481;28;20076;-59
2023/02/07 07:46:46;;;;;;;1.05;0.40;;;;;;;;;;5003127;28;20061;-60
2023/02/07 07:49:13;;;;;;;1.30;0.50;;;;;;;;;;5002734;28;20825;-60
2023/02/07 07:51:39;;;;;;;0.75;0.40;;;;;;;;;;5001555;28;20042;-59
2023/02/07 07:54:06;;;;;;;1.50;0.40;;;;;;;;;;5002300;28;20034;-60
2023/02/07 07:56:34;;;;;;;0.93;0.40;;;;;;;;;;5000066;28;20410;-61
2023/02/07 07:59:01;;;;;;;1.85;0.32;;;;;;;;;;5001164;28;20205;-60
2023/02/07 08:01:28;;;;;;;2.03;0.40;;;;;;;;;;5000938;28;20045;-60
2023/02/07 08:03:54;;;;;;;1.15;0.40;;;;;;;;;;5001584;28;20093;-59
2023/02/07 08:06:21;;;;;;;1.25;0.40;;;;;;;;;;4990169;28;20042;-62
2023/02/07 08:08:48;;;;;;;0.77;0.40;;;;;;;;;;4999579;28;20150;-60
2023/02/07 08:11:14;;;;;;;0.88;0.40;;;;;;;;;;5002994;28;20038;-61
2023/02/07 08:13:41;;;;;;;0.73;0.30;;;;;;;;;;5001369;28;20030;-61
2023/02/07 08:16:09;;;;;;;0.77;0.30;;;;;;;;;;5000948;28;20113;-58
2023/02/07 08:18:36;;;;;;;0.88;0.40;;;;;;;;;;5000659;28;20065;-60
2023/02/07 08:21:03;;;;;;;1.27;0.40;;;;;;;;;;5002373;28;20092;-58
2023/02/07 08:23:29;;;;;;;0.77;0.40;;;;;;;;;;5001497;28;20050;-60
2023/02/07 08:25:56;;;;;;;1.15;0.40;;;;;;;;;;4999862;28;20026;-61
2023/02/07 08:28:23;;;;;;;0.57;0.30;;;;;;;;;;4982057;28;20052;-59
2023/02/07 08:30:50;;;;;;;0.30;0.30;;;;;;;;;;5002369;28;20045;-60
2023/02/07 08:33:17;;;;;;;2.13;0.40;;;;;;;;;;5000058;28;20034;-61
2023/02/07 08:35:43;;;;;;;1.75;0.40;;;;;;;;;;4999581;28;20065;-60
2023/02/07 08:38:10;;;;;;;0.85;0.32;;;;;;;;;;5000787;28;20064;-61
2023/02/07 08:40:37;;;;;;;0.43;0.30;;;;;;;;;;4999634;28;20173;-62
2023/02/07 08:43:06;;;;;;;0.85;0.40;;;;;;;;;;5001451;28;21501;-60
2023/02/07 08:45:35;;;;;;;1.88;0.30;;;;;;;;;;4999629;28;20825;-61
2023/02/07 08:48:02;;;;;;;1.10;0.40;;;;;;;;;;5000240;28;20107;-59
2023/02/07 08:50:29;;;;;;;1.15;0.40;;;;;;;;;;5000615;28;22299;-60
2023/02/07 08:52:55;;;;;;;0.70;0.30;;;;;;;;;;5000950;28;20089;-62
2023/02/07 08:55:22;;;;;;;1.88;0.32;;;;;;;;;;4999875;28;20083;-61
2023/02/07 08:57:48;;;;;;;0.30;0.30;;;;;;;;;;4999297;28;20046;-60
2023/02/07 09:00:15;;;;;;;0.98;0.40;;;;;;;;;;5000937;28;20056;-61
2023/02/07 09:02:42;;;;;;;0.77;0.30;;;;;;;;;;4998687;28;20065;-59
2023/02/07 09:05:09;;;;;;;1.35;0.40;;;;;;;;;;5000953;28;20084;-60
2023/02/07 09:07:36;;;;;;;1.83;0.50;;;;;;;;;;4998812;28;20092;-60
2023/02/07 09:10:05;;;;;;;6.65;0.57;;;;;;;;;;5000659;28;20042;-60
2023/02/07 09:12:32;;;;;;;1.05;0.40;;;;;;;;;;5000023;28;20061;-60
2023/02/07 09:14:59;;;;;;;0.63;0.30;;;;;;;;;;5000093;28;20402;-60
2023/02/07 09:17:26;;;;;;;1.23;0.45;;;;;;;;;;4998554;28;20041;-62
2023/02/07 09:19:52;;;;;;;1.20;0.40;;;;;;;;;;4999775;28;20115;-59
2023/02/07 09:22:19;;;;;;;1.30;0.40;;;;;;;;;;4999089;28;20053;-59
2023/02/07 09:24:46;;;;;;;1.05;0.30;;;;;;;;;;5000728;28;20058;-60
2023/02/07 09:27:12;;;;;;;0.88;0.30;;;;;;;;;;4999780;28;20170;-60
2023/02/07 09:29:40;;;;;;;0.30;0.30;;;;;;;;;;4999358;28;20077;-60
2023/02/07 09:32:07;;;;;;;0.90;0.35;;;;;;;;;;4999804;28;20402;-60
2023/02/07 09:34:34;;;;;;;0.55;0.30;;;;;;;;;;4998378;28;20048;-59
2023/02/07 09:37:01;;;;;;;0.88;0.47;;;;;;;;;;4989922;28;20041;-60
2023/02/07 09:39:27;;;;;;;2.33;0.40;;;;;;;;;;4997740;28;20068;-61
2023/02/07 09:41:54;;;;;;;0.60;0.30;;;;;;;;;;5000400;28;20048;-60
2023/02/07 09:44:29;;;;;;;0.30;0.30;;;;;;;;;;4998334;28;20042;-61
2023/02/07 09:47:05;;;;;;;0.65;0.35;;;;;;;;;;5000233;28;20049;-61
2023/02/07 09:49:37;;;;;;;0.88;0.40;;;;;;;;;;4999980;28;20040;-60
2023/02/07 09:52:05;;;;;;;0.75;0.30;;;;;;;;;;5000014;28;20042;-59
2023/02/07 09:54:38;;;;;;;0.88;0.40;;;;;;;;;;4999870;28;21779;-62
2023/02/07 09:57:08;;;;;;;0.30;0.30;;;;;;;;;;4999493;28;20048;-60
2023/02/07 09:59:47;;;;;;;0.63;0.30;;;;;;;;;;4997309;28;20102;-62
2023/02/07 10:02:26;;;;;;;1.35;0.40;;;;;;;;;;5000514;28;20088;-60
2023/02/07 10:04:54;;;;;;;2.05;0.40;;;;;;;;;;5010717;28;20521;-61
2023/02/07 10:07:21;;;;;;;0.90;0.30;;;;;;;;;;5011751;28;20054;-61
2023/02/07 10:09:48;;;;;;;1.13;0.40;;;;;;;;;;5007698;28;21025;-63
2023/02/07 10:12:33;;;;;;;0.90;0.40;;;;;;;;;;5001135;28;20078;-61
2023/02/07 10:15:18;;;;;;;0.63;0.30;;;;;;;;;;5008151;28;20038;-60
2023/02/07 10:17:44;;;;;;;1.27;0.40;;;;;;;;;;5014882;28;20045;-57
2023/02/07 10:20:31;;;;;;;0.55;0.30;;;;;;;;;;5000674;28;20046;-61
2023/02/07 10:23:16;;;;;;;0.90;0.30;;;;;;;;;;5005477;28;20067;-60
2023/02/07 10:25:57;;;;;;;1.00;0.40;;;;;;;;;;4999198;28;20061;-62
2023/02/07 10:28:30;;;;;;;1.08;0.50;;;;;;;;;;4998640;28;20042;-60
2023/02/07 10:30:59;;;;;;;0.98;0.30;;;;;;;;;;5000116;28;20068;-61
2023/02/07 10:33:33;;;;;;;1.02;0.43;;;;;;;;;;4998170;28;20096;-61
2023/02/07 10:36:18;;;;;;;1.73;0.57;;;;;;;;;;4998410;28;20517;-59
2023/02/07 10:38:53;;;;;;;1.30;0.40;;;;;;;;;;4998854;28;20038;-60
2023/02/07 10:41:39;;;;;;;5.55;0.65;;;;;;;;;;4998003;28;20159;-61
2023/02/07 10:44:06;;;;;;;1.77;0.40;;;;;;;;;;4998797;28;20079;-59
2023/02/07 10:46:34;;;;;;;1.98;0.50;;;;;;;;;;4998722;28;20530;-61
2023/02/07 10:49:01;;;;;;;1.98;0.47;;;;;;;;;;5000091;28;20034;-57
2023/02/07 10:51:36;;;;;;;0.45;0.40;;;;;;;;;;4997168;28;20037;-58
2023/02/07 10:54:08;;;;;;;1.80;0.43;;;;;;;;;;5003895;28;20363;-59
2023/02/07 10:56:42;;;;;;;0.68;0.30;;;;;;;;;;5008145;28;20124;-61
2023/02/07 10:59:27;;;;;;;0.80;0.30;;;;;;;;;;5007174;28;20046;-62
2023/02/07 11:01:54;;;;;;;2.58;0.40;;;;;;;;;;5026402;28;20041;-58
2023/02/07 11:04:37;;;;;;;1.33;0.47;;;;;;;;;;5033359;28;20041;-59
2023/02/07 11:07:06;;;;;;;1.23;0.40;;;;;;;;;;5041381;28;20103;-59
2023/02/07 11:09:36;;;;;;;0.73;0.35;;;;;;;;;;5038945;28;20044;-60
2023/02/07 11:12:13;;;;;;;0.32;0.30;;;;;;;;;;5041893;28;20124;-61
2023/02/07 11:14:40;;;;;;;1.33;0.40;;;;;;;;;;5022417;28;20133;-58
2023/02/07 11:17:07;;;;;;;1.02;0.40;;;;;;;;;;5017516;28;20045;-60
2023/02/07 11:19:33;;;;;;;1.05;0.40;;;;;;;;;;5017978;28;20053;-57
2023/02/07 11:22:14;;;;;;;1.10;0.40;;;;;;;;;;5018326;28;20048;-60
2023/02/07 11:24:41;;;;;;;0.98;0.38;;;;;;;;;;5017042;28;20179;-60
2023/02/07 11:27:14;;;;;;;1.13;0.40;;;;;;;;;;5018334;28;20037;-58
2023/02/07 11:30:00;;;;;;;0.85;0.30;;;;;;;;;;5016101;28;20053;-58
2023/02/07 11:32:27;;;;;;;1.05;0.40;;;;;;;;;;5016576;28;20038;-59
2023/02/07 11:34:57;;;;;;;1.45;0.30;;;;;;;;;;5017987;28;20043;-60
2023/02/07 11:37:31;;;;;;;0.55;0.30;;;;;;;;;;5016734;28;20041;-58
2023/02/07 11:40:16;;;;;;;0.30;0.30;;;;;;;;;;5017824;28;20438;-61
2023/02/07 11:42:43;;;;;;;0.95;0.40;;;;;;;;;;5009455;28;20135;-60
2023/02/07 11:45:17;;;;;;;1.38;0.40;;;;;;;;;;5019296;28;20081;-58
2023/02/07 11:47:47;;;;;;;0.35;0.30;;;;;;;;;;5016128;28;20190;-58
2023/02/07 11:50:32;;;;;;;1.83;0.50;;;;;;;;;;5018423;28;20043;-61
2023/02/07 11:53:00;;;;;;;0.45;0.30;;;;;;;;;;5016443;28;20040;-60
2023/02/07 11:55:40;;;;;;;0.85;0.40;;;;;;;;;;5016373;28;20037;-60
2023/02/07 11:58:17;;;;;;;1.33;0.40;;;;;;;;;;5018332;28;20046;-60
2023/02/07 12:00:44;;;;;;;1.33;0.43;;;;;;;;;;5019355;28;20133;-59
2023/02/07 12:03:26;;;;;;;1.25;0.40;;;;;;;;;;5017878;28;20077;-60
2023/02/07 12:05:57;;;;;;;1.23;0.40;;;;;;;;;;5020032;28;20120;-58
2023/02/07 12:08:25;;;;;;;0.82;0.40;;;;;;;;;;5019933;28;20080;-59
2023/02/07 12:10:54;;;;;;;0.85;0.40;;;;;;;;;;5021788;28;20398;-60
2023/02/07 12:13:41;;;;;;;1.42;0.40;;;;;;;;;;5024569;28;21389;-61
2023/02/07 12:16:16;;;;;;;1.60;0.50;;;;;;;;;;5027182;28;20112;-63
2023/02/07 12:18:55;;;;;;;0.60;0.35;;;;;;;;;;5018655;28;21030;-58
2023/02/07 12:21:34;;;;;;;2.72;0.50;;;;;;;;;;5034341;28;20151;-63
2023/02/07 12:24:01;;;;;;;1.27;0.40;;;;;;;;;;5025174;28;20050;-58
2023/02/07 12:26:32;;;;;;;1.38;0.40;;;;;;;;;;5018600;28;20049;-61
2023/02/07 12:29:14;;;;;;;1.27;0.40;;;;;;;;;;5020083;28;20037;-58
2023/02/07 12:31:49;;;;;;;2.75;0.57;;;;;;;;;;5021759;28;20042;-60
2023/02/07 12:34:34;;;;;;;1.85;0.47;;;;;;;;;;5021675;28;20147;-62
2023/02/07 12:37:19;;;;;;;2.70;0.50;;;;;;;;;;5019935;28;20042;-60
2023/02/07 12:39:52;;;;;;;1.88;0.57;;;;;;;;;;5001229;28;20434;-59
2023/02/07 12:42:21;;;;;;;2.17;0.55;;;;;;;;;;4997765;28;20490;-58
2023/02/07 12:44:51;;;;;;;2.50;0.50;;;;;;;;;;5000866;28;20512;-60
2023/02/07 12:47:27;;;;;;;1.75;0.50;;;;;;;;;;4999764;28;20061;-62
2023/02/07 12:50:08;;;;;;;1.73;0.52;;;;;;;;;;5001175;28;21163;-59
2023/02/07 12:52:34;;;;;;;1.38;0.40;;;;;;;;;;4998996;28;20037;-59
2023/02/07 12:55:11;;;;;;;3.10;0.60;;;;;;;;;;5000106;28;20037;-59
2023/02/07 12:58:00;;;;;;;2.17;0.60;;;;;;;;;;5000805;28;20037;-60
2023/02/07 13:00:43;;;;;;;4.35;0.50;;;;;;;;;;4999571;28;20050;-58
2023/02/07 13:03:28;;;;;;;2.13;0.57;;;;;;;;;;5000623;28;20501;-59
2023/02/07 13:05:55;;;;;;;1.65;0.52;;;;;;;;;;4998699;28;20065;-59
2023/02/07 13:08:31;;;;;;;3.33;0.50;;;;;;;;;;5011983;28;20046;-61
2023/02/07 13:11:16;;;;;;;2.22;0.60;;;;;;;;;;4996285;28;20045;-59
2023/02/07 13:13:53;;;;;;;3.25;0.70;;;;;;;;;;5007317;28;20045;-59
2023/02/07 13:16:26;;;;;;;7.20;0.68;;;;;;;;;;5000568;28;20068;-60
2023/02/07 13:18:53;;;;;;;4.07;0.60;;;;;;;;;;5001837;28;20045;-59
2023/02/07 13:21:38;;;;;;;5.00;0.60;;;;;;;;;;4999206;28;20080;-59
2023/02/07 13:24:06;;;;;;;8.48;1.58;;;;;;;;;;4999772;28;20049;-61
2023/02/07 13:26:36;;;;;;;2.38;0.70;;;;;;;;;;4999636;28;20045;-62
2023/02/07 13:29:06;;;;;;;1.48;0.50;;;;;;;;;;4999006;28;20038;-61
2023/02/07 13:31:35;;;;;;;1.98;0.50;;;;;;;;;;4998542;28;20034;-61
2023/02/07 13:34:02;;;;;;;1.77;0.60;;;;;;;;;;5000016;28;20041;-61
2023/02/07 13:36:37;;;;;;;4.88;0.60;;;;;;;;;;5000567;28;20050;-59
2023/02/07 13:39:10;;;;;;;1.52;0.57;;;;;;;;;;5001334;28;20034;-61
2023/02/07 13:41:37;;;;;;;2.45;0.40;;;;;;;;;;5006478;28;20038;-62
2023/02/07 13:44:19;;;;;;;3.20;0.80;;;;;;;;;;5012843;28;20187;-60
2023/02/07 13:46:55;;;;;;;1.85;0.50;;;;;;;;;;5008791;28;20056;-59
2023/02/07 13:49:40;;;;;;;11.75;1.15;;;;;;;;;;5021815;28;20650;-61
2023/02/07 13:52:10;;;;;;;1.42;0.50;;;;;;;;;;5000607;28;20041;-60
2023/02/07 13:54:43;;;;;;;1.95;0.47;;;;;;;;;;4999675;28;20109;-58
2023/02/07 14:00:22;;;;;;;1.77;0.55;;;;;;;;;;4999488;28;19971;-62
2023/02/07 14:02:48;;;;;;;;;;;;;;;;;;4998764;28;20502;-60
2023/02/07 14:05:20;;;;;;;2.20;0.60;;;;;;;;;;5000355;28;19925;-60
2023/02/07 14:08:07;;;;;;;1.80;0.50;;;;;;;;;;4981116;28;20111;-61
2023/02/07 14:10:33;;;;;;;1.42;0.50;;;;;;;;;;4998404;28;20042;-62
2023/02/07 14:13:01;;;;;;;1.98;0.50;;;;;;;;;;4995934;28;20038;-60
2023/02/07 14:15:29;;;;;;;1.98;0.77;;;;;;;;;;4997443;28;20219;-63
2023/02/07 14:18:00;;;;;;;2.00;0.60;;;;;;;;;;5000344;28;20038;-61
2023/02/07 14:20:35;;;;;;;3.80;0.70;;;;;;;;;;5000313;28;20455;-60
2023/02/07 14:23:08;;;;;;;1.55;0.50;;;;;;;;;;4999289;28;20132;-61
2023/02/07 14:25:35;;;;;;;2.63;0.65;;;;;;;;;;4999050;28;20045;-60
2023/02/07 14:28:05;;;;;;;2.95;0.60;;;;;;;;;;5000008;28;20042;-62
2023/02/07 14:30:50;;;;;;;3.03;0.60;;;;;;;;;;4996117;28;20069;-62
2023/02/07 14:33:21;;;;;;;2.40;0.73;;;;;;;;;;5000562;28;20046;-61
2023/02/07 14:36:08;;;;;;;1.27;0.50;;;;;;;;;;4999403;28;20390;-61
2023/02/07 14:38:35;;;;;;;1.75;0.40;;;;;;;;;;4998326;28;20034;-62
2023/02/07 14:41:03;;;;;;;1.63;0.50;;;;;;;;;;4998189;28;20041;-61
2023/02/07 14:43:35;;;;;;;1.33;0.40;;;;;;;;;;4990566;28;20037;-61
2023/02/07 14:46:04;;;;;;;3.05;0.50;;;;;;;;;;4997534;28;20049;-61
2023/02/07 14:48:48;;;;;;;2.40;0.88;;;;;;;;;;5000705;28;20102;-64
2023/02/07 14:51:18;;;;;;;2.50;0.70;;;;;;;;;;5001360;28;20348;-63
2023/02/07 14:53:57;;;;;;;4.45;0.70;;;;;;;;;;5003849;28;20038;-63
2023/02/07 14:56:42;;;;;;;1.23;0.45;;;;;;;;;;5006928;28;20275;-61
2023/02/07 14:59:10;;;;;;;1.73;0.60;;;;;;;;;;5011273;28;20037;-62
2023/02/07 15:01:37;;;;;;;1.05;0.40;;;;;;;;;;5003964;28;20129;-63
2023/02/07 15:04:05;;;;;;;2.63;0.70;;;;;;;;;;4999263;28;20959;-60